sensor_id;sensor_type;location;lat;lon;timestamp;pressure;altitude;pressure_sealevel;temperature;humidity
71938;BME280;59810;48.800;9.086;2023-03-21T00:01:13;97866.06;;;8.71;78.17
71938;BME280;59810;48.800;9.086;2023-03-21T00:03:39;97869.34;;;8.73;78.28
71938;BME280;59810;48.800;9.086;2023-03-21T00:06:09;97865.47;;;8.69;79.92
71938;BME280;59810;48.800;9.086;2023-03-21T00:08:35;97874.63;;;8.68;79.60
71938;BME280;59810;48.800;9.086;2023-03-21T00:11:04;97868.19;;;8.69;79.83
71938;BME280;59810;48.800;9.086;2023-03-21T00:13:30;97869.69;;;8.65;80.16
71938;BME280;59810;48.800;9.086;2023-03-21T00:16:14;97867.59;;;8.67;79.43
71938;BME280;59810;48.800;9.086;2023-03-21T00:18:45;97866.53;;;8.68;79.11
71938;BME280;59810;48.800;9.086;2023-03-21T00:21:16;97863.13;;;8.61;80.29
71938;BME280;59810;48.800;9.086;2023-03-21T00:23:43;97860.09;;;8.57;79.74
71938;BME280;59810;48.800;9.086;2023-03-21T00:26:09;97854.13;;;8.55;81.30
71938;BME280;59810;48.800;9.086;2023-03-21T00:28:42;97859.28;;;8.57;80.98
71938;BME280;59810;48.800;9.086;2023-03-21T00:31:08;97853.78;;;8.52;81.31
71938;BME280;59810;48.800;9.086;2023-03-21T00:33:34;97847.22;;;8.48;82.41
71938;BME280;59810;48.800;9.086;2023-03-21T00:36:00;97845.13;;;8.50;81.69
71938;BME280;59810;48.800;9.086;2023-03-21T00:38:26;97842.88;;;8.47;82.40
71938;BME280;59810;48.800;9.086;2023-03-21T00:40:53;97836.06;;;8.44;82.89
71938;BME280;59810;48.800;9.086;2023-03-21T00:43:18;97836.44;;;8.48;82.11
71938;BME280;59810;48.800;9.086;2023-03-21T00:45:48;97831.50;;;8.45;82.65
71938;BME280;59810;48.800;9.086;2023-03-21T00:48:16;97827.31;;;8.49;82.26
71938;BME280;59810;48.800;9.086;2023-03-21T00:50:45;97816.91;;;8.52;80.58
71938;BME280;59810;48.800;9.086;2023-03-21T00:53:14;97819.25;;;8.49;80.76
71938;BME280;59810;48.800;9.086;2023-03-21T00:55:40;97827.31;;;8.49;80.15
71938;BME280;59810;48.800;9.086;2023-03-21T00:58:06;97818.78;;;8.52;79.07
71938;BME280;59810;48.800;9.086;2023-03-21T01:00:32;97816.09;;;8.52;79.45
71938;BME280;59810;48.800;9.086;2023-03-21T01:03:01;97814.94;;;8.48;79.73
71938;BME280;59810;48.800;9.086;2023-03-21T01:05:31;97816.91;;;8.52;79.19
71938;BME280;59810;48.800;9.086;2023-03-21T01:08:17;97822.41;;;8.46;80.49
71938;BME280;59810;48.800;9.086;2023-03-21T01:10:47;97819.72;;;8.46;80.80
71938;BME280;59810;48.800;9.086;2023-03-21T01:13:15;97822.03;;;8.42;79.99
71938;BME280;59810;48.800;9.086;2023-03-21T01:15:50;97810.56;;;8.35;81.46
71938;BME280;59810;48.800;9.086;2023-03-21T01:18:18;97816.84;;;8.29;82.00
71938;BME280;59810;48.800;9.086;2023-03-21T01:20:45;97816.00;;;8.28;81.68
71938;BME280;59810;48.800;9.086;2023-03-21T01:23:12;97811.09;;;8.25;81.72
71938;BME280;59810;48.800;9.086;2023-03-21T01:25:39;97816.13;;;8.22;82.75
71938;BME280;59810;48.800;9.086;2023-03-21T01:28:05;97812.84;;;8.20;82.62
71938;BME280;59810;48.800;9.086;2023-03-21T01:30:33;97815.75;;;8.18;83.70
71938;BME280;59810;48.800;9.086;2023-03-21T01:32:59;97815.75;;;8.18;84.32
71938;BME280;59810;48.800;9.086;2023-03-21T01:35:27;97810.63;;;8.17;83.43
71938;BME280;59810;48.800;9.086;2023-03-21T01:37:53;97809.94;;;8.21;82.62
71938;BME280;59810;48.800;9.086;2023-03-21T01:40:27;97811.91;;;8.26;82.14
71938;BME280;59810;48.800;9.086;2023-03-21T01:42:53;97803.63;;;8.27;81.91
71938;BME280;59810;48.800;9.086;2023-03-21T01:48:24;97807.25;;;8.33;80.49
71938;BME280;59810;48.800;9.086;2023-03-21T01:50:51;97798.16;;;8.34;79.87
71938;BME280;59810;48.800;9.086;2023-03-21T01:53:19;97802.47;;;8.35;79.46
71938;BME280;59810;48.800;9.086;2023-03-21T01:55:46;97807.25;;;8.33;79.93
71938;BME280;59810;48.800;9.086;2023-03-21T01:58:13;97792.97;;;8.32;79.53
71938;BME280;59810;48.800;9.086;2023-03-21T02:00:43;97794.50;;;8.28;81.17
71938;BME280;59810;48.800;9.086;2023-03-21T02:03:11;97791.69;;;8.23;80.70
71938;BME280;59810;48.800;9.086;2023-03-21T02:05:54;97787.94;;;8.24;81.70
71938;BME280;59810;48.800;9.086;2023-03-21T02:08:23;97790.50;;;8.19;81.18
71938;BME280;59810;48.800;9.086;2023-03-21T02:10:49;97784.91;;;8.21;81.02
71938;BME280;59810;48.800;9.086;2023-03-21T02:13:15;97790.03;;;8.22;79.97
71938;BME280;59810;48.800;9.086;2023-03-21T02:15:45;97784.19;;;8.25;79.72
71938;BME280;59810;48.800;9.086;2023-03-21T02:21:15;97784.91;;;8.32;79.39
71938;BME280;59810;48.800;9.086;2023-03-21T02:27:02;97780.34;;;8.33;79.16
71938;BME280;59810;48.800;9.086;2023-03-21T02:37:30;97773.03;;;7.98;82.27
71938;BME280;59810;48.800;9.086;2023-03-21T02:40:10;97764.13;;;7.98;83.41
71938;BME280;59810;48.800;9.086;2023-03-21T02:45:28;97764.00;;;7.93;83.57
71938;BME280;59810;48.800;9.086;2023-03-21T02:48:05;97764.47;;;7.90;83.22
71938;BME280;59810;48.800;9.086;2023-03-21T02:53:03;97763.19;;;7.92;82.56
71938;BME280;59810;48.800;9.086;2023-03-21T02:55:33;97768.09;;;7.95;82.31
71938;BME280;59810;48.800;9.086;2023-03-21T02:58:03;97761.44;;;7.98;81.66
71938;BME280;59810;48.800;9.086;2023-03-21T03:00:33;97765.19;;;7.97;81.07
71938;BME280;59810;48.800;9.086;2023-03-21T03:03:01;97764.97;;;7.98;80.69
71938;BME280;59810;48.800;9.086;2023-03-21T03:05:30;97759.34;;;8.00;80.20
71938;BME280;59810;48.800;9.086;2023-03-21T03:16:43;97762.75;;;8.07;80.21
71938;BME280;59810;48.800;9.086;2023-03-21T03:19:25;97750.94;;;8.08;79.98
71938;BME280;59810;48.800;9.086;2023-03-21T03:22:02;97754.00;;;8.11;79.88
71938;BME280;59810;48.800;9.086;2023-03-21T03:24:35;97751.75;;;8.08;80.40
71938;BME280;59810;48.800;9.086;2023-03-21T03:27:07;97760.06;;;8.07;81.59
71938;BME280;59810;48.800;9.086;2023-03-21T03:29:37;97752.69;;;8.02;81.27
71938;BME280;59810;48.800;9.086;2023-03-21T03:34:37;97757.13;;;7.97;82.85
71938;BME280;59810;48.800;9.086;2023-03-21T03:37:07;97747.06;;;7.92;82.49
71938;BME280;59810;48.800;9.086;2023-03-21T03:39:46;97752.91;;;7.89;83.92
71938;BME280;59810;48.800;9.086;2023-03-21T03:42:20;97749.50;;;7.82;82.66
71938;BME280;59810;48.800;9.086;2023-03-21T03:44:48;97757.78;;;7.80;83.57
71938;BME280;59810;48.800;9.086;2023-03-21T03:52:58;97739.28;;;7.72;83.24
71938;BME280;59810;48.800;9.086;2023-03-21T03:55:27;97739.88;;;7.74;83.74
71938;BME280;59810;48.800;9.086;2023-03-21T03:57:59;97739.88;;;7.74;83.78
71938;BME280;59810;48.800;9.086;2023-03-21T04:00:25;97741.28;;;7.77;82.86
71938;BME280;59810;48.800;9.086;2023-03-21T04:02:52;97740.09;;;7.73;82.83
71938;BME280;59810;48.800;9.086;2023-03-21T04:05:21;97739.06;;;7.74;81.99
71938;BME280;59810;48.800;9.086;2023-03-21T04:07:47;97744.19;;;7.75;81.59
71938;BME280;59810;48.800;9.086;2023-03-21T04:10:19;97746.06;;;7.75;81.69
71938;BME280;59810;48.800;9.086;2023-03-21T04:12:46;97737.19;;;7.74;81.47
71938;BME280;59810;48.800;9.086;2023-03-21T04:15:11;97736.59;;;7.72;81.23
71938;BME280;59810;48.800;9.086;2023-03-21T04:17:39;97740.56;;;7.70;81.21
71938;BME280;59810;48.800;9.086;2023-03-21T04:20:05;97730.25;;;7.55;82.92
71938;BME280;59810;48.800;9.086;2023-03-21T04:22:32;97732.34;;;7.53;82.59
71938;BME280;59810;48.800;9.086;2023-03-21T04:24:59;97736.53;;;7.49;81.96
71938;BME280;59810;48.800;9.086;2023-03-21T04:27:26;97736.38;;;7.44;81.61
71938;BME280;59810;48.800;9.086;2023-03-21T04:29:51;97732.94;;;7.37;82.00
71938;BME280;59810;48.800;9.086;2023-03-21T04:32:17;97733.88;;;7.31;81.94
71938;BME280;59810;48.800;9.086;2023-03-21T04:34:45;97731.34;;;7.17;83.56
71938;BME280;59810;48.800;9.086;2023-03-21T04:37:19;97729.19;;;7.08;83.22
71938;BME280;59810;48.800;9.086;2023-03-21T04:39:45;97727.25;;;6.97;84.81
71938;BME280;59810;48.800;9.086;2023-03-21T04:42:12;97732.25;;;6.93;85.18
71938;BME280;59810;48.800;9.086;2023-03-21T04:44:39;97728.25;;;6.84;85.31
71938;BME280;59810;48.800;9.086;2023-03-21T04:47:05;97727.47;;;6.77;85.71
71938;BME280;59810;48.800;9.086;2023-03-21T04:49:30;97727.69;;;6.75;86.20
71938;BME280;59810;48.800;9.086;2023-03-21T04:51:56;97725.31;;;6.67;86.42
71938;BME280;59810;48.800;9.086;2023-03-21T04:54:21;97725.69;;;6.71;85.89
71938;BME280;59810;48.800;9.086;2023-03-21T04:56:47;97728.50;;;6.76;85.67
71938;BME280;59810;48.800;9.086;2023-03-21T04:59:14;97724.66;;;6.72;86.43
71938;BME280;59810;48.800;9.086;2023-03-21T05:01:40;97721.38;;;6.70;87.43
71938;BME280;59810;48.800;9.086;2023-03-21T05:04:07;97721.81;;;6.67;87.73
71938;BME280;59810;48.800;9.086;2023-03-21T05:06:33;97718.69;;;6.70;86.96
71938;BME280;59810;48.800;9.086;2023-03-21T05:09:03;97720.31;;;6.71;87.13
71938;BME280;59810;48.800;9.086;2023-03-21T05:11:36;97721.38;;;6.70;86.49
71938;BME280;59810;48.800;9.086;2023-03-21T05:14:06;97727.19;;;6.67;87.55
71938;BME280;59810;48.800;9.086;2023-03-21T05:16:33;97728.81;;;6.68;86.72
71938;BME280;59810;48.800;9.086;2023-03-21T05:19:00;97729.63;;;6.68;86.25
71938;BME280;59810;48.800;9.086;2023-03-21T05:21:31;97722.63;;;6.67;86.48
71938;BME280;59810;48.800;9.086;2023-03-21T05:24:12;97728.81;;;6.68;86.11
71938;BME280;59810;48.800;9.086;2023-03-21T05:26:38;97723.22;;;6.69;85.61
71938;BME280;59810;48.800;9.086;2023-03-21T05:29:04;97732.09;;;6.70;84.50
71938;BME280;59810;48.800;9.086;2023-03-21T05:31:30;97723.69;;;6.66;84.50
71938;BME280;59810;48.800;9.086;2023-03-21T05:33:58;97725.53;;;6.66;85.57
71938;BME280;59810;48.800;9.086;2023-03-21T05:36:23;97732.53;;;6.67;84.65
71938;BME280;59810;48.800;9.086;2023-03-21T05:38:51;97731.34;;;6.63;85.24
71938;BME280;59810;48.800;9.086;2023-03-21T05:41:17;97727.03;;;6.62;85.60
71938;BME280;59810;48.800;9.086;2023-03-21T05:43:42;97729.25;;;6.65;85.26
71938;BME280;59810;48.800;9.086;2023-03-21T05:46:08;97724.34;;;6.62;86.83
71938;BME280;59810;48.800;9.086;2023-03-21T05:48:34;97726.66;;;6.58;87.04
71938;BME280;59810;48.800;9.086;2023-03-21T05:51:03;97729.94;;;6.60;86.59
71938;BME280;59810;48.800;9.086;2023-03-21T05:53:29;97731.72;;;6.66;87.16
71938;BME280;59810;48.800;9.086;2023-03-21T05:55:54;97734.19;;;6.68;86.41
71938;BME280;59810;48.800;9.086;2023-03-21T05:58:22;97734.34;;;6.73;86.51
71938;BME280;59810;48.800;9.086;2023-03-21T06:00:47;97730.59;;;6.74;86.24
71938;BME280;59810;48.800;9.086;2023-03-21T06:03:13;97739.47;;;6.74;85.78
71938;BME280;59810;48.800;9.086;2023-03-21T06:05:39;97733.28;;;6.74;86.10
71938;BME280;59810;48.800;9.086;2023-03-21T06:08:05;97735.00;;;6.68;86.54
71938;BME280;59810;48.800;9.086;2023-03-21T06:10:30;97741.56;;;6.72;85.83
71938;BME280;59810;48.800;9.086;2023-03-21T06:12:58;97737.59;;;6.75;86.08
71938;BME280;59810;48.800;9.086;2023-03-21T06:15:23;97749.53;;;6.79;85.35
71938;BME280;59810;48.800;9.086;2023-03-21T06:17:49;97737.75;;;6.80;85.70
71938;BME280;59810;48.800;9.086;2023-03-21T06:20:14;97746.63;;;6.80;86.49
71938;BME280;59810;48.800;9.086;2023-03-21T06:22:39;97742.69;;;6.83;86.11
71938;BME280;59810;48.800;9.086;2023-03-21T06:25:07;97738.53;;;6.87;85.82
71938;BME280;59810;48.800;9.086;2023-03-21T06:27:33;97736.44;;;6.89;85.60
71938;BME280;59810;48.800;9.086;2023-03-21T06:29:59;97737.84;;;6.92;84.88
71938;BME280;59810;48.800;9.086;2023-03-21T06:32:25;97737.41;;;6.95;83.55
71938;BME280;59810;48.800;9.086;2023-03-21T06:34:51;97735.09;;;6.98;85.14
71938;BME280;59810;48.800;9.086;2023-03-21T06:37:16;97733.44;;;6.97;85.11
71938;BME280;59810;48.800;9.086;2023-03-21T06:39:42;97727.25;;;6.97;85.68
71938;BME280;59810;48.800;9.086;2023-03-21T06:42:07;97732.19;;;7.00;85.14
71938;BME280;59810;48.800;9.086;2023-03-21T06:44:33;97731.34;;;6.99;85.58
71938;BME280;59810;48.800;9.086;2023-03-21T06:46:58;97729.63;;;7.05;85.21
71938;BME280;59810;48.800;9.086;2023-03-21T06:49:24;97730.59;;;7.10;84.82
71938;BME280;59810;48.800;9.086;2023-03-21T06:51:52;97724.94;;;7.18;84.36
71938;BME280;59810;48.800;9.086;2023-03-21T06:54:18;97730.44;;;7.24;84.28
71938;BME280;59810;48.800;9.086;2023-03-21T06:56:44;97724.16;;;7.30;84.16
71938;BME280;59810;48.800;9.086;2023-03-21T06:59:10;97730.03;;;7.38;83.66
71938;BME280;59810;48.800;9.086;2023-03-21T07:01:35;97731.16;;;7.49;83.32
71938;BME280;59810;48.800;9.086;2023-03-21T07:04:01;97730.00;;;7.57;82.14
71938;BME280;59810;48.800;9.086;2023-03-21T07:06:26;97724.31;;;7.65;81.44
71938;BME280;59810;48.800;9.086;2023-03-21T07:08:53;97726.19;;;7.76;81.99
71938;BME280;59810;48.800;9.086;2023-03-21T07:11:19;97726.94;;;7.83;81.67
71938;BME280;59810;48.800;9.086;2023-03-21T07:13:47;97721.81;;;7.93;80.82
71938;BME280;59810;48.800;9.086;2023-03-21T07:16:14;97722.06;;;8.03;80.09
71938;BME280;59810;48.800;9.086;2023-03-21T07:18:40;97717.78;;;8.14;79.54
71938;BME280;59810;48.800;9.086;2023-03-21T07:21:05;97720.22;;;8.27;76.89
71938;BME280;59810;48.800;9.086;2023-03-21T07:23:31;97724.00;;;8.38;76.15
71938;BME280;59810;48.800;9.086;2023-03-21T07:25:56;97717.34;;;8.52;74.66
71938;BME280;59810;48.800;9.086;2023-03-21T07:28:22;97721.66;;;8.65;72.72
71938;BME280;59810;48.800;9.086;2023-03-21T07:30:55;97723.28;;;8.78;72.67
71938;BME280;59810;48.800;9.086;2023-03-21T07:33:22;97728.09;;;8.87;72.27
71938;BME280;59810;48.800;9.086;2023-03-21T07:35:52;97732.38;;;9.00;71.09
71938;BME280;59810;48.800;9.086;2023-03-21T07:38:18;97724.75;;;9.09;71.15
71938;BME280;59810;48.800;9.086;2023-03-21T07:40:45;97724.97;;;9.19;72.26
71938;BME280;59810;48.800;9.086;2023-03-21T07:43:11;97729.75;;;9.28;70.48
71938;BME280;59810;48.800;9.086;2023-03-21T07:45:36;97735.34;;;9.39;69.48
71938;BME280;59810;48.800;9.086;2023-03-21T07:48:02;97728.84;;;9.51;68.33
71938;BME280;59810;48.800;9.086;2023-03-21T07:50:27;97725.94;;;9.70;67.92
71938;BME280;59810;48.800;9.086;2023-03-21T07:52:53;97719.94;;;9.79;67.51
71938;BME280;59810;48.800;9.086;2023-03-21T07:55:20;97723.38;;;9.91;65.83
71938;BME280;59810;48.800;9.086;2023-03-21T07:57:48;97728.88;;;9.96;65.44
71938;BME280;59810;48.800;9.086;2023-03-21T08:00:16;97716.84;;;10.04;65.74
71938;BME280;59810;48.800;9.086;2023-03-21T08:02:48;97722.34;;;10.09;64.70
71938;BME280;59810;48.800;9.086;2023-03-21T08:05:14;97731.34;;;10.15;64.63
71938;BME280;59810;48.800;9.086;2023-03-21T08:07:39;97727.53;;;10.27;64.09
71938;BME280;59810;48.800;9.086;2023-03-21T08:10:07;97724.41;;;10.36;64.01
71938;BME280;59810;48.800;9.086;2023-03-21T08:12:33;97722.03;;;10.39;63.80
71938;BME280;59810;48.800;9.086;2023-03-21T08:14:58;97717.69;;;10.55;62.46
71938;BME280;59810;48.800;9.086;2023-03-21T08:17:23;97726.59;;;10.72;61.56
71938;BME280;59810;48.800;9.086;2023-03-21T08:19:49;97719.91;;;10.75;62.30
71938;BME280;59810;48.800;9.086;2023-03-21T08:22:14;97714.00;;;10.78;61.63
71938;BME280;59810;48.800;9.086;2023-03-21T08:24:40;97720.53;;;10.82;61.28
71938;BME280;59810;48.800;9.086;2023-03-21T08:27:07;97723.94;;;10.94;60.34
71938;BME280;59810;48.800;9.086;2023-03-21T08:29:33;97711.78;;;10.97;59.29
71938;BME280;59810;48.800;9.086;2023-03-21T08:32:01;97709.25;;;11.07;58.59
71938;BME280;59810;48.800;9.086;2023-03-21T08:34:26;97713.91;;;11.11;58.88
71938;BME280;59810;48.800;9.086;2023-03-21T08:36:54;97713.13;;;11.16;58.67
71938;BME280;59810;48.800;9.086;2023-03-21T08:39:19;97708.03;;;11.19;57.52
71938;BME280;59810;48.800;9.086;2023-03-21T08:41:45;97704.88;;;11.28;56.78
71938;BME280;59810;48.800;9.086;2023-03-21T08:44:11;97706.84;;;11.32;56.92
71938;BME280;59810;48.800;9.086;2023-03-21T08:46:36;97696.03;;;11.32;57.00
71938;BME280;59810;48.800;9.086;2023-03-21T08:49:02;97694.19;;;11.38;57.41
71938;BME280;59810;48.800;9.086;2023-03-21T08:51:27;97694.31;;;11.48;56.83
71938;BME280;59810;48.800;9.086;2023-03-21T08:53:52;97692.84;;;11.62;54.05
71938;BME280;59810;48.800;9.086;2023-03-21T08:56:18;97698.13;;;11.74;53.59
71938;BME280;59810;48.800;9.086;2023-03-21T08:58:45;97693.13;;;11.88;51.27
71938;BME280;59810;48.800;9.086;2023-03-21T09:01:11;97692.19;;;12.04;47.78
71938;BME280;59810;48.800;9.086;2023-03-21T09:03:40;97691.47;;;12.13;46.70
71938;BME280;59810;48.800;9.086;2023-03-21T09:06:06;97694.75;;;12.21;46.72
71938;BME280;59810;48.800;9.086;2023-03-21T09:08:39;97694.81;;;12.26;46.28
71938;BME280;59810;48.800;9.086;2023-03-21T09:11:06;97695.72;;;12.36;44.46
71938;BME280;59810;48.800;9.086;2023-03-21T09:13:32;97691.66;;;12.39;45.31
71938;BME280;59810;48.800;9.086;2023-03-21T09:16:00;97699.34;;;12.52;48.12
71938;BME280;59810;48.800;9.086;2023-03-21T09:18:26;97696.41;;;12.64;46.28
71938;BME280;59810;48.800;9.086;2023-03-21T09:21:09;97698.06;;;12.65;49.86
71938;BME280;59810;48.800;9.086;2023-03-21T09:23:41;97701.66;;;12.75;56.59
71938;BME280;59810;48.800;9.086;2023-03-21T09:26:09;97696.84;;;12.88;55.39
71938;BME280;59810;48.800;9.086;2023-03-21T09:28:35;97697.69;;;12.98;49.38
71938;BME280;59810;48.800;9.086;2023-03-21T09:31:03;97692.69;;;13.22;46.80
71938;BME280;59810;48.800;9.086;2023-03-21T09:33:29;97688.97;;;13.33;46.84
71938;BME280;59810;48.800;9.086;2023-03-21T09:35:55;97687.34;;;13.37;46.88
71938;BME280;59810;48.800;9.086;2023-03-21T09:38:24;97681.69;;;13.54;47.44
71938;BME280;59810;48.800;9.086;2023-03-21T09:41:06;97680.88;;;13.64;45.45
71938;BME280;59810;48.800;9.086;2023-03-21T09:44:21;97688.00;;;13.90;44.95
71938;BME280;59810;48.800;9.086;2023-03-21T09:49:21;97690.75;;;14.00;45.21
71938;BME280;59810;48.800;9.086;2023-03-21T09:51:50;97684.19;;;13.91;45.92
71938;BME280;59810;48.800;9.086;2023-03-21T09:54:30;97682.06;;;14.04;46.70
71938;BME280;59810;48.800;9.086;2023-03-21T09:57:08;97682.59;;;14.00;47.30
71938;BME280;59810;48.800;9.086;2023-03-21T09:59:37;97674.16;;;14.12;48.02
71938;BME280;59810;48.800;9.086;2023-03-21T10:02:35;97664.13;;;14.23;47.36
71938;BME280;59810;48.800;9.086;2023-03-21T10:08:17;97668.75;;;14.43;44.72
71938;BME280;59810;48.800;9.086;2023-03-21T10:10:59;97660.31;;;14.54;44.88
71938;BME280;59810;48.800;9.086;2023-03-21T10:13:34;97652.94;;;14.70;44.57
71938;BME280;59810;48.800;9.086;2023-03-21T10:16:28;97661.88;;;14.86;46.16
71938;BME280;59810;48.800;9.086;2023-03-21T10:18:55;97660.78;;;14.87;44.10
71938;BME280;59810;48.800;9.086;2023-03-21T10:21:23;97654.25;;;14.88;45.39
71938;BME280;59810;48.800;9.086;2023-03-21T10:23:50;97654.75;;;15.00;45.21
71938;BME280;59810;48.800;9.086;2023-03-21T10:26:20;97650.69;;;15.03;45.00
71938;BME280;59810;48.800;9.086;2023-03-21T10:28:47;97649.81;;;15.12;44.12
71938;BME280;59810;48.800;9.086;2023-03-21T10:31:16;97653.84;;;15.20;44.96
71938;BME280;59810;48.800;9.086;2023-03-21T10:33:45;97650.03;;;15.21;45.05
71938;BME280;59810;48.800;9.086;2023-03-21T10:36:15;97642.66;;;15.32;45.18
71938;BME280;59810;48.800;9.086;2023-03-21T10:38:47;97645.28;;;15.47;45.80
71938;BME280;59810;48.800;9.086;2023-03-21T10:41:15;97638.19;;;15.51;46.26
71938;BME280;59810;48.800;9.086;2023-03-21T10:43:41;97640.97;;;15.41;45.15
71938;BME280;59810;48.800;9.086;2023-03-21T10:48:39;97636.41;;;15.31;44.04
71938;BME280;59810;48.800;9.086;2023-03-21T10:51:07;97645.50;;;15.55;43.38
71938;BME280;59810;48.800;9.086;2023-03-21T10:53:45;97647.94;;;15.57;43.54
71938;BME280;59810;48.800;9.086;2023-03-21T10:56:11;97653.41;;;15.62;44.75
71938;BME280;59810;48.800;9.086;2023-03-21T10:58:41;97649.88;;;15.62;45.28
71938;BME280;59810;48.800;9.086;2023-03-21T11:01:12;97658.47;;;15.79;43.63
71938;BME280;59810;48.800;9.086;2023-03-21T11:03:42;97646.34;;;15.61;43.55
71938;BME280;59810;48.800;9.086;2023-03-21T11:06:31;97643.22;;;15.78;44.32
71938;BME280;59810;48.800;9.086;2023-03-21T11:09:03;97642.63;;;15.86;43.92
71938;BME280;59810;48.800;9.086;2023-03-21T11:11:40;97638.50;;;15.94;43.62
71938;BME280;59810;48.800;9.086;2023-03-21T11:14:41;97638.19;;;15.61;44.60
71938;BME280;59810;48.800;9.086;2023-03-21T11:19:49;97636.34;;;15.85;44.12
71938;BME280;59810;48.800;9.086;2023-03-21T11:22:15;97634.56;;;15.71;45.13
71938;BME280;59810;48.800;9.086;2023-03-21T11:24:48;97636.75;;;15.69;44.25
71938;BME280;59810;48.800;9.086;2023-03-21T11:27:14;97625.84;;;15.74;44.45
71938;BME280;59810;48.800;9.086;2023-03-21T11:29:48;97618.44;;;15.79;44.92
71938;BME280;59810;48.800;9.086;2023-03-21T11:32:36;97620.91;;;15.76;44.62
71938;BME280;59810;48.800;9.086;2023-03-21T11:35:06;97618.97;;;15.81;43.77
71938;BME280;59810;48.800;9.086;2023-03-21T11:37:39;97619.25;;;15.80;44.64
71938;BME280;59810;48.800;9.086;2023-03-21T11:40:20;97618.47;;;15.74;44.37
71938;BME280;59810;48.800;9.086;2023-03-21T11:42:49;97619.09;;;15.56;45.49
71938;BME280;59810;48.800;9.086;2023-03-21T11:45:22;97613.34;;;15.68;47.17
71938;BME280;59810;48.800;9.086;2023-03-21T11:47:49;97612.19;;;15.79;45.63
71938;BME280;59810;48.800;9.086;2023-03-21T11:50:34;97609.69;;;15.82;42.97
71938;BME280;59810;48.800;9.086;2023-03-21T11:55:56;97598.38;;;15.70;42.16
71938;BME280;59810;48.800;9.086;2023-03-21T12:12:05;97590.13;;;15.80;36.48
71938;BME280;59810;48.800;9.086;2023-03-21T12:14:46;97585.56;;;15.71;37.75
71938;BME280;59810;48.800;9.086;2023-03-21T12:17:25;97576.66;;;15.60;38.18
71938;BME280;59810;48.800;9.086;2023-03-21T12:22:44;97568.47;;;15.65;39.57
71938;BME280;59810;48.800;9.086;2023-03-21T12:25:18;97573.34;;;15.68;39.44
71938;BME280;59810;48.800;9.086;2023-03-21T12:28:28;97570.78;;;15.82;40.74
71938;BME280;59810;48.800;9.086;2023-03-21T12:34:11;97560.28;;;15.99;38.78
71938;BME280;59810;48.800;9.086;2023-03-21T12:44:24;97544.47;;;16.25;39.43
71938;BME280;59810;48.800;9.086;2023-03-21T12:47:03;97544.34;;;16.40;37.64
71938;BME280;59810;48.800;9.086;2023-03-21T12:49:35;97551.00;;;16.53;37.51
71938;BME280;59810;48.800;9.086;2023-03-21T12:52:07;97541.00;;;16.72;38.68
71938;BME280;59810;48.800;9.086;2023-03-21T12:59:59;97539.97;;;16.87;37.60
71938;BME280;59810;48.800;9.086;2023-03-21T13:02:33;97537.22;;;16.92;37.32
71938;BME280;59810;48.800;9.086;2023-03-21T13:05:17;97531.78;;;16.87;35.04
71938;BME280;59810;48.800;9.086;2023-03-21T13:07:49;97530.25;;;16.81;35.88
71938;BME280;59810;48.800;9.086;2023-03-21T13:10:19;97530.38;;;16.71;36.87
71938;BME280;59810;48.800;9.086;2023-03-21T13:18:24;97520.88;;;16.68;37.30
71938;BME280;59810;48.800;9.086;2023-03-21T13:20:55;97527.00;;;16.79;37.13
71938;BME280;59810;48.800;9.086;2023-03-21T13:23:23;97526.72;;;16.80;40.12
71938;BME280;59810;48.800;9.086;2023-03-21T13:25:51;97520.00;;;16.73;41.14
71938;BME280;59810;48.800;9.086;2023-03-21T13:28:26;97513.72;;;16.48;42.77
71938;BME280;59810;48.800;9.086;2023-03-21T13:30:52;97520.94;;;16.58;42.01
71938;BME280;59810;48.800;9.086;2023-03-21T13:33:31;97525.31;;;16.35;41.54
71938;BME280;59810;48.800;9.086;2023-03-21T13:36:07;97512.69;;;16.44;40.73
71938;BME280;59810;48.800;9.086;2023-03-21T13:38:37;97512.75;;;16.63;39.37
71938;BME280;59810;48.800;9.086;2023-03-21T13:41:13;97500.66;;;16.45;40.31
71938;BME280;59810;48.800;9.086;2023-03-21T13:48:56;97498.63;;;16.56;43.35
71938;BME280;59810;48.800;9.086;2023-03-21T13:59:16;97489.59;;;16.61;44.23
71938;BME280;59810;48.800;9.086;2023-03-21T14:04:41;97478.69;;;16.61;44.78
71938;BME280;59810;48.800;9.086;2023-03-21T14:07:11;97477.34;;;16.58;43.68
71938;BME280;59810;48.800;9.086;2023-03-21T14:09:39;97470.25;;;16.57;44.38
71938;BME280;59810;48.800;9.086;2023-03-21T14:12:12;97471.22;;;16.47;45.44
71938;BME280;59810;48.800;9.086;2023-03-21T14:14:45;97470.03;;;16.54;46.33
71938;BME280;59810;48.800;9.086;2023-03-21T14:17:13;97472.00;;;16.29;47.60
71938;BME280;59810;48.800;9.086;2023-03-21T14:19:41;97477.53;;;16.19;47.73
71938;BME280;59810;48.800;9.086;2023-03-21T14:22:12;97467.22;;;16.16;47.41
71938;BME280;59810;48.800;9.086;2023-03-21T14:24:37;97477.28;;;15.92;48.31
71938;BME280;59810;48.800;9.086;2023-03-21T14:27:04;97477.16;;;15.78;48.91
71938;BME280;59810;48.800;9.086;2023-03-21T14:29:33;97474.44;;;15.78;48.55
71938;BME280;59810;48.800;9.086;2023-03-21T14:32:00;97475.44;;;15.53;48.91
71938;BME280;59810;48.800;9.086;2023-03-21T14:34:31;97472.28;;;15.75;48.90
71938;BME280;59810;48.800;9.086;2023-03-21T14:36:58;97479.00;;;15.82;47.88
71938;BME280;59810;48.800;9.086;2023-03-21T14:39:31;97481.69;;;15.87;48.25
71938;BME280;59810;48.800;9.086;2023-03-21T14:42:15;97468.78;;;15.98;47.71
71938;BME280;59810;48.800;9.086;2023-03-21T14:44:47;97471.84;;;15.92;48.58
71938;BME280;59810;48.800;9.086;2023-03-21T14:47:18;97465.50;;;16.01;48.38
71938;BME280;59810;48.800;9.086;2023-03-21T14:49:44;97462.19;;;16.04;47.67
71938;BME280;59810;48.800;9.086;2023-03-21T14:52:15;97466.88;;;15.99;48.41
71938;BME280;59810;48.800;9.086;2023-03-21T14:54:48;97470.28;;;15.85;48.16
71938;BME280;59810;48.800;9.086;2023-03-21T14:57:20;97470.03;;;15.82;48.81
71938;BME280;59810;48.800;9.086;2023-03-21T14:59:49;97469.16;;;15.86;47.77
71938;BME280;59810;48.800;9.086;2023-03-21T15:02:21;97463.72;;;15.63;48.15
71938;BME280;59810;48.800;9.086;2023-03-21T15:04:50;97463.59;;;15.73;50.52